Sault Sainte Marie, MI

3:29 AM EST on February 01, 2015 (GMT -0500)
Sault Ste Marie Municipal / Sanderson Field | Change Station
CLOSE
Current Station
Airport
Location: Sault Ste Marie,
Elevation: 715 ft
Nearby Weather Stations

Elev 715 ft 46.48 °N, 84.36 °W | Updated 34 minutes ago

Partly Cloudy
Partly Cloudy
-4 °F
Feels Like -21 °F
N
10
Wind Variable Wind from NE

Today
High -- | Low -- °F
--% Chance of Precip.
Yesterday
High -- | Low -- °F
Precip. -- in
8:01 AM 5:41 PM
Waxing Gibbous, 94% visible
Pressure 30.41 in
Visibility 10.0 miles
Clouds Clear
Windchill -21 °F
Dew Point -15 °F
Humidity 59%
Rainfall 0.00 in
Snow Depth Not available.
UV 0 out of 12
Pollen .10 out of 12
Air Quality Not available.
Flu Activity Not available.
METAR KANJ 010755Z AUTO 05009KT 10SM CLR M20/M26 A3036 RMK AO2 SLP296 T12001261

More Conditions Fewer Conditions

Pressure 30.41 in
Visibility 10.0 miles
Clouds Clear
Windchill -21 °F
Dew Point -15 °F
Humidity 59%
Rainfall 0.00 in
Snow Depth Not available.
UV 0 out of 12
Pollen .10 out of 12
Air Quality Not available.
Flu Activity Not available.
METAR KANJ 010755Z AUTO 05009KT 10SM CLR M20/M26 A3036 RMK AO2 SLP296 T12001261

More Conditions Fewer Conditions

Nowcast | as of 3:00 am EST on February 1, 2015

At 4 am...mostly cloudy. Temperature 3 below. Northeast winds 5 mph. At 6 am...mostly cloudy. Temperature 7 below. Northeast winds 6 mph. At 8 am...mostly cloudy. Temperature 9 below. Northeast winds 6 mph. At 10 am...mostly cloudy. Temperature 7 below. East winds 6 mph.

×

10-Day Weather Forecast

Almanac

Astronomy

Feb. 01, 2015 Rise Set
Actual Time
Civil Twilight
Nautical Twilight
Astronomical Twilight
Moon
Length of Visible Light
Length of Day
Tomorrow will be .
, % of the Moon is Illuminated

Today's Extremes

State Highs State Lows

Community

WunderPhotos

Upload Photos

1,792,332 photos uploaded!

WunderBlogs® & News

Nearby

Air Quality

  Air Quality AQ Index Pollutant
Not available.

Snow Depth

Station Depth Elevation

Earthquake Activity

City Distance Mag. Time & Date
Minimum magnitude displayed is 2.5.

Coastal Water Temperatures

Place Temperature

Nearby Weather Stations